Terminal Aerodrome Forecast
Issued by NWS Newport/Morehead City, NC

Home | Current Version | Previous Version | Graphics & Text | Print | Product List | Glossary On
Versions: 1 2 3 4 5 6 7 8 9 10 11 12 13 14
713
FTUS42 KMHX 172332
TAFEWN
TAF
KEWN 172332Z 1800/1824 00000KT P6SM SKC
     FM181000 00000KT P6SM SCT020
     FM181400 20009KT P6SM SKC
     FM181700 20012G18KT P6SM BKN040=

USA.gov is the U.S. government's official web portal to all federal, state and local government web resources and services.